Data for 07/17/2014

Time Sea-Level Adjusted Pressure Absolute Pressure Temperature Relative Humidity Dew Point   
(mb) (inHg) (mb) (inHg) (C) (F) (%) (C) (F)
00:05 1020 30.12 849 25.07 15.8 60.5 54 6.6 43.8
00:10 1020 30.12 849 25.07 15.6 60.1 53 6.3 43.3
00:15 1020 30.12 849 25.07 15.8 60.4 52 6 42.8
00:20 1020 30.12 849 25.07 15.8 60.4 52 6.1 43
00:25 1020 30.12 849 25.07 15.7 60.3 53 6.4 43.5
00:30 1020 30.12 849 25.07 15.8 60.4 52 5.9 42.7
00:35 1020 30.12 849 25.07 16.2 61.2 50 5.9 42.6
00:40 1020 30.12 849 25.07 16.2 61.1 52 6.3 43.4
00:45 1020 30.12 849 25.07 15.9 60.5 54 6.5 43.8
00:50 1020 30.12 849 25.07 15.5 59.9 53 6.1 43
00:55 1020 30.12 849 25.07 15.4 59.8 55 6.4 43.5
01:00 1020 30.12 849 25.07 15.2 59.3 56 6.5 43.7
01:05 1020 30.12 849 25.07 15 58.9 57 6.5 43.7
01:10 1020 30.12 849 25.07 14.9 58.7 56 6.3 43.3
01:15 1020 30.12 849 25.07 15.1 59.1 55 6.1 43
01:20 1020 30.12 849 25.07 15.4 59.8 53 6 42.8
01:25 1019 30.09 849 25.07 15.5 59.9 54 6.4 43.5
01:30 1019 30.09 849 25.07 15.3 59.5 54 6.2 43.2
01:35 1019 30.09 849 25.07 15.3 59.5 55 6.4 43.6
01:40 1019 30.09 849 25.07 15.3 59.6 55 6.3 43.4
01:45 1019 30.09 849 25.07 15.5 59.8 53 6.1 42.9
01:50 1019 30.09 849 25.07 15.5 59.8 55 6.6 43.8
01:55 1019 30.09 849 25.07 15.1 59.2 56 6.4 43.6
02:00 1019 30.09 849 25.07 15.1 59.2 55 6.3 43.4
02:05 1019 30.09 849 25.07 15 58.9 57 6.5 43.7
02:10 1019 30.09 849 25.07 14.8 58.7 56 6.3 43.4
02:15 1019 30.09 849 25.07 14.8 58.7 56 6.3 43.4
02:20 1019 30.09 849 25.07 15 58.9 55 6.1 42.9
02:25 1019 30.09 848 25.04 15.1 59.2 55 6.1 43
02:30 1019 30.09 848 25.04 15.1 59.3 55 6.2 43.1
02:35 1019 30.09 848 25.04 15.1 59.3 56 6.5 43.6
02:40 1019 30.09 848 25.04 14.9 58.9 55 6.2 43.1
02:45 1019 30.09 848 25.04 15.1 59.1 55 6.2 43.2
02:50 1019 30.09 848 25.04 15.3 59.5 54 6.1 43
02:55 1019 30.09 849 25.07 15.5 59.8 54 6.4 43.5
03:00 1019 30.09 849 25.07 15.1 59.2 58 6.9 44.4
03:05 1019 30.09 849 25.07 14.5 58.1 60 6.8 44.3
03:10 1019 30.09 848 25.04 14.6 58.2 59 6.6 43.9
03:15 1019 30.09 848 25.04 14.9 58.8 58 6.7 44.1
03:20 1019 30.09 848 25.04 14.8 58.7 58 6.7 44
03:25 1019 30.09 849 25.07 15.3 59.5 55 6.5 43.6
03:30 1019 30.09 848 25.04 15.7 60.2 52 6 42.8
03:35 1019 30.09 848 25.04 15.9 60.6 54 6.5 43.8
03:40 1019 30.09 848 25.04 15.7 60.2 54 6.5 43.8
03:45 1019 30.09 848 25.04 15.4 59.6 59 7.5 45.6
03:50 1019 30.09 848 25.04 14.6 58.2 56 6.1 42.9
03:55 1019 30.09 848 25.04 15.2 59.4 56 6.7 44
04:00 1019 30.09 848 25.04 14.8 58.6 59 7 44.6
04:05 1019 30.09 848 25.04 14.4 58 59 6.6 43.9
04:10 1019 30.09 848 25.04 14.4 57.9 58 6.3 43.4
04:15 1019 30.09 848 25.04 14.4 58 60 6.8 44.2
04:20 1019 30.09 848 25.04 14.1 57.5 60 6.6 43.9
04:25 1019 30.09 848 25.04 14.1 57.3 60 6.6 43.9
04:30 1019 30.09 848 25.04 14.1 57.5 61 6.9 44.4
04:35 1019 30.09 848 25.04 14.1 57.3 61 6.7 44.1
04:40 1019 30.09 848 25.04 14.1 57.4 60 6.6 43.9
04:45 1019 30.09 848 25.04 14.2 57.6 60 6.6 43.9
04:50 1019 30.09 848 25.04 14.2 57.5 60 6.6 43.8
04:55 1019 30.09 848 25.04 14 57.2 60 6.5 43.6
05:00 1019 30.09 848 25.04 14 57.1 59 6.3 43.3
05:05 1019 30.09 848 25.04 14 57.2 59 6.1 43
05:10 1019 30.09 848 25.04 14.2 57.6 58 6.1 42.9
05:15 1019 30.09 848 25.04 14.5 58.1 57 6.2 43.2
05:20 1019 30.09 848 25.04 14.5 58 58 6.3 43.3
05:25 1019 30.09 848 25.04 14.3 57.8 60 6.7 44
05:30 1019 30.09 848 25.04 14.1 57.4 61 6.7 44
05:35 1019 30.09 849 25.07 14.1 57.4 60 6.6 43.8
05:40 1019 30.09 849 25.07 14.4 57.9 59 6.5 43.7
05:45 1019 30.09 849 25.07 14.7 58.4 57 6.3 43.3
05:50 1019 30.09 849 25.07 14.9 58.9 55 6.1 43.1
05:55 1019 30.09 849 25.07 15.1 59.1 55 6.2 43.1
06:00 1019 30.09 849 25.07 15.2 59.3 54 5.9 42.6
06:05 1020 30.12 849 25.07 15.3 59.6 53 6 42.8
06:10 1020 30.12 849 25.07 15.3 59.6 53 6 42.8
06:15 1020 30.12 849 25.07 15.5 59.9 53 5.9 42.7
06:20 1019 30.09 849 25.07 15.6 60.1 53 6.2 43.2
06:25 1020 30.12 849 25.07 15.6 60.1 57 7.2 44.9
06:30 1020 30.12 849 25.07 15.5 59.9 58 7.4 45.4
06:35 1020 30.12 849 25.07 15.6 60 57 7.1 44.8
06:40 1020 30.12 849 25.07 15.6 60.1 57 7.1 44.9
06:45 1020 30.12 849 25.07 15.6 60 57 7.2 44.9
06:50 1020 30.12 849 25.07 15.6 60.1 59 7.6 45.7
06:55 1019 30.09 849 25.07 15.7 60.2 59 7.9 46.1
07:00 1019 30.09 849 25.07 15.6 60 59 7.7 45.8
07:05 1019 30.09 849 25.07 15.6 60.1 59 7.8 46.1
07:10 1019 30.09 849 25.07 15.8 60.5 58 7.7 45.8
07:15 1019 30.09 849 25.07 16.2 61.1 56 7.5 45.5
07:20 1019 30.09 849 25.07 16.5 61.7 55 7.5 45.5
07:25 1019 30.09 849 25.07 16.9 62.4 54 7.7 45.9
07:30 1019 30.09 849 25.07 17.2 62.9 52 7.2 45
07:35 1019 30.09 849 25.07 17.6 63.7 50 7 44.7
07:40 1019 30.09 849 25.07 17.8 64.1 50 7.3 45.1
07:45 1019 30.09 849 25.07 18 64.4 50 7.7 45.8
07:50 1019 30.09 849 25.07 18 64.3 52 8.1 46.5
07:55 1019 30.09 849 25.07 18.3 64.9 54 8.9 48.1
08:00 1019 30.09 849 25.07 18.7 65.6 52 8.8 47.8
08:05 1019 30.09 849 25.07 18.7 65.7 52 8.7 47.7
08:10 1019 30.09 849 25.07 18.6 65.6 53 8.9 48
08:15 1019 30.09 849 25.07 19.3 66.7 49 8.5 47.4
08:20 1019 30.09 849 25.07 19.5 67.2 48 8.3 47
08:25 1019 30.09 849 25.07 19.5 67.2 47 8.2 46.8
08:30 1019 30.09 849 25.07 20.2 68.4 47 8.6 47.4
08:35 1019 30.09 849 25.07 20.4 68.8 50 9.7 49.4
08:40 1019 30.09 849 25.07 20.9 69.6 43 8.1 46.7
08:45 1019 30.09 849 25.07 21.7 71 41 8.1 46.6
08:50 1019 30.09 849 25.07 22.2 72 40 8.3 46.9
08:55 1019 30.09 849 25.07 22.6 72.6 38 7.7 45.9
09:00 1019 30.09 849 25.07 23 73.5 37 7.8 46.1
09:05 1019 30.09 849 25.07 22.6 72.7 39 8.1 46.6
09:10 1019 30.09 848 25.04 22.9 73.2 39 8.3 47
09:15 1019 30.09 848 25.04 22.9 73.1 40 8.6 47.4
09:20 1019 30.09 848 25.04 23 73.5 38 8.2 46.8
09:25 1019 30.09 848 25.04 23.6 74.5 37 8.4 47.1
09:30 1019 30.09 848 25.04 23.5 74.3 38 8.6 47.4
09:35 1019 30.09 848 25.04 23.9 75 35 7.9 46.2
09:40 1019 30.09 848 25.04 24.3 75.7 35 8 46.4
09:45 1019 30.09 848 25.04 24.4 75.8 33 7.1 44.7
09:50 1019 30.09 848 25.04 24 75.3 35 7.8 46
09:55 1019 30.09 848 25.04 24.4 75.9 32 7 44.5
10:00 1019 30.09 848 25.04 24.1 75.5 33 7.1 44.8
10:05 1019 30.09 848 25.04 24.9 76.7 32 7.2 44.9
10:10 1019 30.09 848 25.04 24.9 76.8 32 7.4 45.3
10:15 1019 30.09 848 25.04 24.7 76.4 32 7.1 44.8
10:20 1019 30.09 848 25.04 25.7 78.3 30 7.1 44.8
10:25 1019 30.09 848 25.04 26.3 79.3 29 7.1 44.7
10:30 1019 30.09 848 25.04 25.7 78.3 29 6.6 43.9
10:35 1019 30.09 848 25.04 25.4 77.8 31 7.2 44.9
10:40 1018 30.06 848 25.04 25.4 77.8 30 7 44.6
10:45 1018 30.06 848 25.04 25.9 78.5 30 7 44.7
10:50 1018 30.06 848 25.04 26.3 79.3 29 7 44.5
10:55 1018 30.06 848 25.04 26.1 79 27 6.1 42.9
11:00 1018 30.06 847 25.01 26.6 79.9 27 6.1 43
11:05 1018 30.06 847 25.01 26.2 79.2 28 6.3 43.4
11:10 1018 30.06 847 25.01 27.2 81 27 6.7 44
11:15 1018 30.06 847 25.01 27.9 82.2 27 7.3 45.2
11:20 1018 30.06 847 25.01 28.2 82.8 27 7.6 45.7
11:25 1018 30.06 847 25.01 28.3 82.9 26 7.1 44.8
11:30 1018 30.06 847 25.01 28.1 82.6 26 7.2 45
11:35 1018 30.06 847 25.01 28 82.4 25 6.2 43.2
11:40 1018 30.06 847 25.01 28.6 83.5 24 6.2 43.2
11:45 1018 30.06 847 25.01 27.7 81.9 26 6.9 44.5
11:50 1018 30.06 847 25.01 28 82.3 26 6.8 44.3
11:55 1018 30.06 847 25.01 28.7 83.6 25 6.8 44.3
12:00 1018 30.06 847 25.01 29.2 84.6 25 7.4 45.3
12:05 1018 30.06 847 25.01 29.2 84.5 25 7.2 45
12:10 1018 30.06 847 25.01 29.1 84.3 25 7.6 45.6
12:15 1018 30.06 847 25.01 28.7 83.6 25 6.9 44.4
12:20 1017 30.03 847 25.01 29.1 84.5 25 7.2 44.9
12:25 1017 30.03 847 25.01 29.3 84.7 24 7 44.5
12:30 1017 30.03 847 25.01 29.2 84.5 23 6.4 43.6
12:35 1017 30.03 847 25.01 28.7 83.6 25 7 44.6
12:40 1017 30.03 846 24.98 28.9 83.9 24 6.8 44.3
12:45 1017 30.03 846 24.98 29.3 84.8 23 6.1 42.9
12:50 1017 30.03 846 24.98 29.6 85.3 24 7.1 44.8
12:55 1017 30.03 846 24.98 28.9 83.9 25 7.1 44.7
13:00 1017 30.03 846 24.98 28.6 83.4 25 6.8 44.2
13:05 1017 30.03 846 24.98 29.3 84.7 24 7.2 45
13:10 1017 30.03 846 24.98 29.8 85.6 22 6.2 43.1
13:15 1017 30.03 846 24.98 29.7 85.5 22 6.4 43.5
13:20 1017 30.03 846 24.98 29.6 85.3 23 6.4 43.4
13:25 1017 30.03 846 24.98 29.3 84.7 22 5.9 42.7
13:30 1017 30.03 846 24.98 29.9 85.9 23 6.8 44.3
13:35 1017 30.03 846 24.98 29.9 85.8 22 6.1 43
13:40 1017 30.03 846 24.98 30.1 86.1 22 6.6 43.9
13:45 1016 30 846 24.98 30.1 86.2 22 6.3 43.3
13:50 1016 30 846 24.98 30.2 86.3 22 6.5 43.7
13:55 1016 30 846 24.98 30.4 86.8 22 6.7 44
14:00 1016 30 846 24.98 29.5 85.1 24 7.4 45.3
14:05 1016 30 845 24.95 29.1 84.3 23 6.2 43.1
14:10 1016 30 845 24.95 29.8 85.7 23 6.6 43.8
14:15 1016 30 845 24.95 29.3 84.8 24 6.9 44.5
14:20 1016 30 845 24.95 28.5 83.2 24 6.1 43
14:25 1016 30 845 24.95 29.3 84.7 23 6.3 43.3
14:30 1016 30 845 24.95 29.9 85.9 22 6 42.8
14:35 1016 30 845 24.95 29.3 84.7 23 6.3 43.3
14:40 1016 30 845 24.95 28.5 83.4 24 6.2 43.2
14:45 1016 30 845 24.95 29.1 84.4 24 6.7 44.1
14:50 1016 30 845 24.95 29 84.2 22 5.7 42.3
14:55 1016 30 845 24.95 29.5 85 22 6.2 43.1
15:00 1016 30 845 24.95 30.1 86.3 21 5.9 42.6
15:05 1016 30 845 24.95 30.9 87.5 20 6 42.8
15:10 1016 30 845 24.95 30.8 87.4 22 6.7 44.1
15:15 1016 30 845 24.95 30 86 23 6.9 44.5
15:20 1016 30 845 24.95 29.9 85.8 21 5.6 42.2
15:25 1016 30 845 24.95 30.6 87.2 21 6.3 43.3
15:30 1016 30 845 24.95 30.6 87.1 20 5.8 42.5
15:35 1015 29.97 845 24.95 30.5 86.9 19 4.8 40.7
15:40 1015 29.97 845 24.95 30.8 87.5 19 5 41
15:45 1015 29.97 845 24.95 30.8 87.4 20 5.4 41.7
15:50 1015 29.97 844 24.92 31 87.9 19 5.4 41.7
15:55 1015 29.97 844 24.92 30.5 87 21 5.8 42.4
16:00 1015 29.97 844 24.92 30.4 86.6 20 5.2 41.4
16:05 1015 29.97 844 24.92 30.7 87.3 20 5.4 41.7
16:10 1015 29.97 844 24.92 31 87.7 20 6 42.8
16:15 1015 29.97 844 24.92 30.9 87.7 20 5.4 41.8
16:20 1015 29.97 844 24.92 30.2 86.3 20 5 41
16:25 1015 29.97 844 24.92 29.9 85.7 21 5.3 41.6
16:30 1015 29.97 844 24.92 29.5 85.1 21 5.1 41.3
16:35 1015 29.97 844 24.92 29.6 85.3 20 4.6 40.3
16:40 1015 29.97 844 24.92 30 86 19 4.5 40.1
16:45 1015 29.97 844 24.92 30.4 86.7 19 4.7 40.4
16:50 1014 29.94 844 24.92 30.9 87.5 18 4.1 39.4
16:55 1014 29.94 844 24.92 30.9 87.6 18 4.6 40.2
17:00 1014 29.94 844 24.92 31.1 88 19 5 41
17:05 1014 29.94 843 24.89 31.2 88.2 18 4.3 39.8
17:10 1014 29.94 843 24.89 30.9 87.6 18 4.1 39.4
17:15 1014 29.94 843 24.89 31 87.8 17 3.8 38.9
17:20 1014 29.94 843 24.89 31.2 88.2 17 3.4 38
17:25 1014 29.94 843 24.89 31.4 88.6 16 3.4 38
17:30 1014 29.94 843 24.89 31.1 88 18 4.3 39.7
17:35 1014 29.94 843 24.89 30.8 87.4 18 4.4 39.9
17:40 1014 29.94 843 24.89 30.3 86.6 19 4.2 39.6
17:45 1014 29.94 843 24.89 30.4 86.7 19 4.6 40.2
17:50 1014 29.94 843 24.89 30.3 86.6 17 3.3 37.9
17:55 1014 29.94 843 24.89 30 86.1 18 3.7 38.7
18:00 1014 29.94 843 24.89 29.7 85.4 19 4.2 39.6
18:05 1014 29.94 843 24.89 29.8 85.7 18 3.7 38.6
18:10 1014 29.94 843 24.89 29.9 85.8 18 3.2 37.8
18:15 1014 29.94 843 24.89 30.2 86.4 18 3.6 38.5
18:20 1014 29.94 843 24.89 30.3 86.5 18 3.3 38
18:25 1014 29.94 843 24.89 29.8 85.7 18 3.6 38.6
18:30 1014 29.94 843 24.89 29.3 84.8 19 3.5 38.2
18:35 1014 29.94 843 24.89 29.1 84.3 20 3.9 39
18:40 1014 29.94 843 24.89 28.9 84 21 4.8 40.6
18:45 1014 29.94 843 24.89 28.7 83.6 21 4.3 39.7
18:50 1014 29.94 843 24.89 28.6 83.4 23 5.6 42
18:55 1014 29.94 843 24.89 28.5 83.3 21 4.2 39.5
19:00 1014 29.94 843 24.89 28.5 83.2 22 5.2 41.4
19:05 1014 29.94 843 24.89 28.4 83 23 5.5 42
19:10 1014 29.94 843 24.89 28.2 82.7 28 8.3 47
19:15 1014 29.94 843 24.89 27.9 82.2 27 7.6 45.6
19:20 1014 29.94 843 24.89 27.7 81.8 29 8.2 46.8
19:25 1014 29.94 843 24.89 27.6 81.6 28 7.6 45.7
19:30 1014 29.94 843 24.89 27.4 81.4 30 8.8 47.8
19:35 1014 29.94 843 24.89 26.8 80.2 36 10.7 51.2
19:40 1014 29.94 843 24.89 26 78.8 38 11 51.8
19:45 1014 29.94 843 24.89 25.5 78 35 9.3 48.7
19:50 1014 29.94 843 24.89 24.8 76.6 36 9.1 48.3
19:55 1014 29.94 843 24.89 24.3 75.8 37 9.1 48.4
20:00 1014 29.94 843 24.89 24 75.1 40 9.9 49.8
20:05 1014 29.94 843 24.89 23.6 74.5 38 8.7 47.7
20:10 1014 29.94 843 24.89 23.3 73.9 37 8 46.4
20:15 1014 29.94 843 24.89 23 73.3 38 8.2 46.8
20:20 1014 29.94 843 24.89 22.6 72.7 38 8 46.3
20:25 1014 29.94 843 24.89 22.3 72.1 38 7.6 45.6
20:30 1014 29.94 843 24.89 22 71.6 40 7.9 46.2
20:35 1014 29.94 843 24.89 21.7 71.1 42 8.5 47.2
20:40 1014 29.94 843 24.89 21.3 70.3 42 8.1 46.5
20:45 1014 29.94 843 24.89 21 69.9 42 7.9 46.2
20:50 1014 29.94 843 24.89 20.9 69.7 43 7.9 46.2
20:55 1014 29.94 843 24.89 20.9 69.6 41 7.3 45.2
21:00 1014 29.94 843 24.89 21.1 70 39 6.7 44.1
21:05 1014 29.94 843 24.89 21.3 70.4 37 6.2 43.2
21:10 1014 29.94 843 24.89 21.5 70.6 35 5.6 42.1
21:15 1014 29.94 844 24.92 21.7 71.1 36 6.1 43.1
21:20 1014 29.94 844 24.92 21.7 71 37 6.6 43.9
21:25 1015 29.97 844 24.92 21.7 71 34 5.4 41.8
21:30 1015 29.97 844 24.92 22.6 72.6 27 2.9 37.2
21:35 1015 29.97 844 24.92 23.8 74.9 27 3.9 39.1
21:40 1015 29.97 844 24.92 23.9 74.9 26 3.6 38.5
21:45 1015 29.97 844 24.92 24.2 75.5 26 3.6 38.5
21:50 1015 29.97 844 24.92 24.3 75.7 26 3.5 38.3
21:55 1015 29.97 844 24.92 24.2 75.6 25 3.3 38
22:00 1015 29.97 844 24.92 24.3 75.7 25 3.4 38.1
22:05 1015 29.97 844 24.92 24.1 75.3 26 3.8 38.9
22:10 1015 29.97 844 24.92 23.8 74.9 27 3.8 38.8
22:15 1015 29.97 844 24.92 23.7 74.7 27 3.9 39
22:20 1015 29.97 844 24.92 23.5 74.4 28 4.3 39.7
22:25 1015 29.97 844 24.92 23.2 73.7 28 4 39.3
22:30 1015 29.97 844 24.92 23.2 73.7 29 4.3 39.7
22:35 1015 29.97 844 24.92 22.8 73.1 30 4.4 39.9
22:40 1015 29.97 845 24.95 22.7 72.8 29 4.1 39.4
22:45 1016 30 845 24.95 22.7 72.9 28 3.7 38.6
22:50 1016 30 845 24.95 22.8 73 28 3.7 38.7
22:55 1016 30 845 24.95 22.8 73.1 28 3.6 38.4
23:00 1016 30 845 24.95 22.7 72.9 29 3.8 38.9
23:05 1016 30 845 24.95 22.5 72.6 30 4.3 39.8
23:10 1016 30 845 24.95 22.1 71.7 31 4.5 40.1
23:15 1016 30 845 24.95 21.7 71.1 30 3.7 38.7
23:20 1016 30 845 24.95 21.9 71.5 32 4.9 40.8
23:25 1016 30 845 24.95 22.2 71.9 31 4.2 39.6
23:30 1016 30 845 24.95 22.2 72 30 4.1 39.3
23:35 1016 30 845 24.95 22.3 72.1 30 3.8 38.9
23:40 1016 30 845 24.95 22.3 72.2 29 3.6 38.4
23:45 1016 30 846 24.98 22.3 72.2 31 4.6 40.3
23:50 1016 30 846 24.98 22.1 71.8 30 3.8 38.9
23:55 1017 30.03 846 24.98 22 71.6 30 4 39.2
24:00 1017 30.03 846 24.98 22.1 71.8 28 3 37.4